createdAt,value
2023-02-24T00:02:05.716Z,6.60
2023-02-24T00:04:39.915Z,7.22
2023-02-24T00:07:09.310Z,9.05
2023-02-24T00:09:38.304Z,10.45
2023-02-24T00:12:12.269Z,11.30
2023-02-24T00:14:42.768Z,9.90
2023-02-24T00:17:14.779Z,10.88
2023-02-24T00:19:43.044Z,15.32
2023-02-24T00:22:11.326Z,8.95
2023-02-24T00:24:39.134Z,10.60
2023-02-24T00:27:08.233Z,6.40
2023-02-24T00:29:39.993Z,10.05
2023-02-24T00:32:13.357Z,7.05
2023-02-24T00:34:41.814Z,9.30
2023-02-24T00:37:10.265Z,9.50
2023-02-24T00:39:41.810Z,11.63
2023-02-24T00:42:12.119Z,9.40
2023-02-24T00:44:47.483Z,7.30
2023-02-24T00:47:18.376Z,5.82
2023-02-24T00:49:46.512Z,5.43
2023-02-24T00:52:19.939Z,7.95
2023-02-24T00:54:49.340Z,7.78
2023-02-24T00:57:18.808Z,6.50
2023-02-24T00:59:48.118Z,7.43
2023-02-24T04:46:15.212Z,8.93
2023-02-24T04:48:42.999Z,5.00
2023-02-24T04:51:10.878Z,11.57
2023-02-24T04:53:38.833Z,8.13
2023-02-24T04:56:10.185Z,6.32
2023-02-24T04:58:39.362Z,7.68
2023-02-24T05:05:26.036Z,10.25
2023-02-24T05:08:03.165Z,8.18
2023-02-24T05:10:47.367Z,7.93
2023-02-24T05:13:18.265Z,7.15
2023-02-24T05:15:48.058Z,4.00
2023-02-24T05:18:20.563Z,7.72
2023-02-24T05:21:09.615Z,6.53
2023-02-24T05:23:40.168Z,3.85
2023-02-24T05:26:09.750Z,7.47
2023-02-24T05:28:40.977Z,4.75
2023-02-24T05:31:11.553Z,7.72
2023-02-24T05:33:42.787Z,6.72
2023-02-24T05:36:15.479Z,3.83
2023-02-24T05:38:44.264Z,5.72
2023-02-24T05:41:18.167Z,3.90
2023-02-24T05:43:55.120Z,3.50
2023-02-24T05:46:36.095Z,6.88
2023-02-24T05:49:10.095Z,4.97
2023-02-24T05:51:39.490Z,4.47
2023-02-24T05:54:09.732Z,7.20
2023-02-24T05:56:40.163Z,7.20
2023-02-24T05:59:10.908Z,3.70
2023-02-24T06:01:46.246Z,12.52
2023-02-24T06:04:21.207Z,5.95
2023-02-24T06:06:52.909Z,5.72
2023-02-24T06:11:51.866Z,4.60
2023-02-24T06:14:21.692Z,7.35
2023-02-24T06:16:49.517Z,7.72
2023-02-24T06:19:17.715Z,7.38
2023-02-24T06:21:45.519Z,5.90
2023-02-24T06:24:15.587Z,9.15
2023-02-24T06:26:44.841Z,4.68
2023-02-24T06:29:14.983Z,2.80
2023-02-24T06:31:44.419Z,7.95
2023-02-24T06:34:14.158Z,5.28
2023-02-24T06:36:43.837Z,11.23
2023-02-24T06:39:14.759Z,3.90
2023-02-24T06:41:42.983Z,6.63
2023-02-24T06:44:10.828Z,6.75
2023-02-24T06:46:38.876Z,7.45
2023-02-24T06:49:10.124Z,5.40
2023-02-24T06:51:37.871Z,4.88
2023-02-24T06:54:06.439Z,2.05
2023-02-24T06:56:39.282Z,6.03
2023-02-24T06:59:07.455Z,6.38
2023-02-24T07:01:36.472Z,6.45
2023-02-24T07:04:13.203Z,3.63
2023-02-24T07:06:43.860Z,3.67
2023-02-24T07:09:15.013Z,6.78
2023-02-24T07:11:46.895Z,4.45
2023-02-24T07:14:15.297Z,1.75
2023-02-24T07:16:45.762Z,5.85
2023-02-24T07:19:15.791Z,3.42
2023-02-24T07:21:50.140Z,3.08
2023-02-24T07:24:25.142Z,4.82
2023-02-24T07:26:59.252Z,6.18
2023-02-24T07:29:29.803Z,6.63
2023-02-24T07:32:03.706Z,4.18
2023-02-24T07:34:33.985Z,2.35
2023-02-24T07:37:08.559Z,2.33
2023-02-24T07:39:37.849Z,4.30
2023-02-24T07:42:07.836Z,5.72
2023-02-24T07:44:46.945Z,3.50
2023-02-24T07:47:16.374Z,2.03
2023-02-24T07:49:45.728Z,4.60
2023-02-24T07:52:13.944Z,3.25
2023-02-24T07:54:41.915Z,7.07
2023-02-24T07:57:14.222Z,3.45
2023-02-24T07:59:45.374Z,2.20
2023-02-24T08:02:14.037Z,2.60
2023-02-24T08:04:48.686Z,1.30
2023-02-24T08:07:25.260Z,3.45
2023-02-24T08:10:15.367Z,3.83
2023-02-24T08:12:44.017Z,3.35
2023-02-24T08:15:24.302Z,2.70
2023-02-24T08:17:59.839Z,2.30
2023-02-24T08:20:58.563Z,3.80
2023-02-24T08:23:26.399Z,1.30
2023-02-24T08:25:54.256Z,4.68
2023-02-24T08:28:27.128Z,2.65
2023-02-24T08:30:58.166Z,5.65
2023-02-24T08:33:30.453Z,2.83
2023-02-24T08:36:02.497Z,3.67
2023-02-24T08:38:40.171Z,2.05
2023-02-24T08:41:18.115Z,7.10
2023-02-24T08:43:47.826Z,5.15
2023-02-24T08:46:33.121Z,1.98
2023-02-24T08:49:01.340Z,2.13
2023-02-24T08:51:35.726Z,1.67
2023-02-24T08:54:15.688Z,3.00
2023-02-24T08:56:56.317Z,4.57
2023-02-24T08:59:50.141Z,2.88
2023-02-24T09:02:23.319Z,3.90
2023-02-24T09:05:07.944Z,1.33
2023-02-24T09:07:38.546Z,3.30
2023-02-24T09:10:11.666Z,4.80
2023-02-24T09:12:42.619Z,5.70
2023-02-24T09:15:15.595Z,3.20
2023-02-24T09:17:47.558Z,4.53
2023-02-24T09:20:52.450Z,4.22
2023-02-24T09:23:20.562Z,3.38
2023-02-24T09:25:54.701Z,4.95
2023-02-24T09:28:28.224Z,5.55
2023-02-24T09:31:05.060Z,6.32
2023-02-24T09:33:39.830Z,2.38
2023-02-24T09:36:13.427Z,5.55
2023-02-24T09:39:03.248Z,2.88
2023-02-24T09:42:08.169Z,4.15
2023-02-24T09:44:53.060Z,3.55
2023-02-24T09:47:45.323Z,5.45
2023-02-24T09:50:40.277Z,5.38
2023-02-24T09:53:14.584Z,2.75
2023-02-24T09:56:06.745Z,3.13
2023-02-24T10:01:39.994Z,4.97
2023-02-24T10:04:20.633Z,3.40
2023-02-24T10:06:58.617Z,5.40
2023-02-24T10:09:40.546Z,3.58
2023-02-24T10:12:13.357Z,3.50
2023-02-24T10:14:51.137Z,3.03
2023-02-24T10:17:25.184Z,6.32
2023-02-24T10:20:14.077Z,4.57
2023-02-24T10:22:55.370Z,6.13
2023-02-24T10:25:38.620Z,2.88
2023-02-24T10:28:15.480Z,7.57
2023-02-24T10:30:48.974Z,4.03
2023-02-24T10:33:25.711Z,4.47
2023-02-24T10:36:11.379Z,3.88
2023-02-24T10:38:41.475Z,8.23
2023-02-24T10:41:10.369Z,9.45
2023-02-24T10:43:47.823Z,4.50
2023-02-24T10:46:40.961Z,5.00
2023-02-24T10:49:16.176Z,7.47
2023-02-24T10:51:49.389Z,3.70
2023-02-24T10:54:34.824Z,7.45
2023-02-24T10:57:08.266Z,3.17
2023-02-24T11:00:06.021Z,6.13
2023-02-24T11:02:56.847Z,7.28
2023-02-24T11:05:45.998Z,6.32
2023-02-24T11:08:39.638Z,5.85
2023-02-24T11:11:30.139Z,2.30
2023-02-24T11:14:21.297Z,6.72
2023-02-24T11:17:10.939Z,6.90
2023-02-24T11:19:50.432Z,3.65
2023-02-24T11:22:24.600Z,4.05
2023-02-24T11:24:52.899Z,4.65
2023-02-24T11:27:24.659Z,5.85
2023-02-24T11:33:10.759Z,3.70
2023-02-24T11:36:13.035Z,3.83
2023-02-24T11:39:15.296Z,4.00
2023-02-24T11:41:48.021Z,5.80
2023-02-24T11:44:47.642Z,3.03
2023-02-24T11:47:21.526Z,3.70
2023-02-24T11:50:27.702Z,5.57
2023-02-24T11:52:57.541Z,3.25
2023-02-24T11:55:53.630Z,6.45
2023-02-24T11:58:31.094Z,5.13
2023-02-24T12:01:18.657Z,5.53
2023-02-24T12:04:11.891Z,2.53
2023-02-24T12:07:07.991Z,8.85
2023-02-24T12:09:45.153Z,4.68
2023-02-24T12:12:22.353Z,4.45
2023-02-24T12:14:58.599Z,4.40
2023-02-24T12:18:00.458Z,3.15
2023-02-24T12:20:41.783Z,3.85
2023-02-24T12:23:21.495Z,4.18
2023-02-24T12:26:09.831Z,5.80
2023-02-24T12:28:55.031Z,2.10
2023-02-24T12:31:54.537Z,2.65
2023-02-24T12:34:44.171Z,2.50
2023-02-24T12:37:30.599Z,4.70
2023-02-24T12:40:01.489Z,4.15
2023-02-24T12:43:05.768Z,6.10
2023-02-24T12:45:54.536Z,4.22
2023-02-24T12:48:52.217Z,3.88
2023-02-24T12:51:51.212Z,7.00
2023-02-24T12:54:53.917Z,3.10
2023-02-24T12:57:28.969Z,1.88
2023-02-24T13:00:07.084Z,4.93
2023-02-24T13:02:53.465Z,4.68
2023-02-24T13:05:34.918Z,2.50
2023-02-24T13:08:16.999Z,5.68
2023-02-24T13:10:56.852Z,2.92
2023-02-24T13:13:54.520Z,4.18
2023-02-24T13:16:34.298Z,7.65
2023-02-24T13:19:28.026Z,4.03
2023-02-24T13:21:58.980Z,2.55
2023-02-24T13:24:27.908Z,3.17
2023-02-24T13:27:07.025Z,4.70
2023-02-24T13:29:48.822Z,4.07
2023-02-24T13:32:27.948Z,2.67
2023-02-24T13:34:57.070Z,2.40
2023-02-24T13:37:38.521Z,1.85
2023-02-24T13:40:24.477Z,3.78
2023-02-24T13:43:01.838Z,3.28
2023-02-24T13:45:35.081Z,2.78
2023-02-24T13:48:33.887Z,2.40
2023-02-24T13:51:02.564Z,3.10
2023-02-24T13:53:42.428Z,3.10
2023-02-24T13:56:20.665Z,3.03
2023-02-24T13:58:52.774Z,2.55
2023-02-24T14:01:22.165Z,3.90
2023-02-24T14:04:27.836Z,2.33
2023-02-24T14:07:03.530Z,2.85
2023-02-24T14:09:40.826Z,6.03
2023-02-24T14:12:27.073Z,2.83
2023-02-24T14:14:55.833Z,2.20
2023-02-24T14:17:28.767Z,4.90
2023-02-24T14:20:07.079Z,2.67
2023-02-24T14:22:36.256Z,2.88
2023-02-24T14:25:10.939Z,2.75
2023-02-24T14:27:39.759Z,4.28
2023-02-24T14:30:31.021Z,3.22
2023-02-24T14:33:00.272Z,3.35
2023-02-24T14:35:42.353Z,4.35
2023-02-24T14:38:56.193Z,4.85
2023-02-24T14:41:26.291Z,4.03
2023-02-24T14:43:55.613Z,3.28
2023-02-24T14:46:24.375Z,2.80
2023-02-24T14:48:56.754Z,2.67
2023-02-24T14:51:43.080Z,3.15
2023-02-24T14:54:16.559Z,2.35
2023-02-24T14:56:47.084Z,4.75
2023-02-24T14:59:29.915Z,2.70
2023-02-24T15:01:58.412Z,4.63
2023-02-24T15:04:47.366Z,2.92
2023-02-24T15:07:27.108Z,4.28
2023-02-24T15:09:56.048Z,3.00
2023-02-24T15:12:32.798Z,2.95
2023-02-24T15:15:04.283Z,4.35
2023-02-24T15:17:32.757Z,5.03
2023-02-24T15:20:01.019Z,3.15
2023-02-24T15:22:35.042Z,3.63
2023-02-24T15:25:33.764Z,3.88
2023-02-24T15:28:21.105Z,4.63
2023-02-24T15:31:17.325Z,6.15
2023-02-24T15:34:00.560Z,5.90
2023-02-24T15:36:37.893Z,2.97
2023-02-24T15:39:15.891Z,4.43
2023-02-24T15:41:46.693Z,4.43
2023-02-24T15:44:28.153Z,4.03
2023-02-24T15:46:57.565Z,3.50
2023-02-24T15:49:25.355Z,5.07
2023-02-24T15:51:59.788Z,4.43
2023-02-24T15:54:31.559Z,4.90
2023-02-24T15:57:01.135Z,5.65
2023-02-24T15:59:30.130Z,4.95
2023-02-24T16:02:01.100Z,6.38
2023-02-24T16:04:29.287Z,4.10
2023-02-24T16:07:00.598Z,8.60
2023-02-24T16:09:37.554Z,7.22
2023-02-24T16:12:21.558Z,10.85
2023-02-24T16:14:50.673Z,6.40
2023-02-24T16:17:36.629Z,6.15
2023-02-24T16:20:09.189Z,6.78
2023-02-24T16:22:37.497Z,5.78
2023-02-24T16:25:06.215Z,7.40
2023-02-24T16:27:34.929Z,7.40
2023-02-24T16:30:02.807Z,7.35
2023-02-24T16:32:30.891Z,6.53
2023-02-24T16:34:58.877Z,6.18
2023-02-24T16:37:30.876Z,6.95
2023-02-24T16:39:59.752Z,6.50
2023-02-24T16:42:30.442Z,6.68
2023-02-24T16:45:00.676Z,7.68
2023-02-24T16:47:33.861Z,8.45
2023-02-24T16:50:01.867Z,8.30
2023-02-24T16:52:29.710Z,9.40
2023-02-24T16:54:57.921Z,7.60
2023-02-24T16:57:26.292Z,9.05
2023-02-24T16:59:54.488Z,11.63
2023-02-24T17:02:25.260Z,11.23
2023-02-24T17:04:53.268Z,8.32
2023-02-24T17:07:21.546Z,8.43
2023-02-24T17:09:49.463Z,8.63
2023-02-24T17:12:21.976Z,9.38
2023-02-24T17:14:50.055Z,9.88
2023-02-24T17:17:17.946Z,9.20
2023-02-24T17:19:46.040Z,10.57
2023-02-24T17:22:15.913Z,9.35
2023-02-24T17:24:44.179Z,9.18
2023-02-24T17:27:12.813Z,9.55
2023-02-24T17:29:41.367Z,9.23
2023-02-24T17:32:09.312Z,9.25
2023-02-24T17:34:37.229Z,11.10
2023-02-24T17:37:05.080Z,9.88
2023-02-24T17:39:33.152Z,10.82
2023-02-24T17:42:02.460Z,7.88
2023-02-24T17:44:30.770Z,10.00
2023-02-24T17:46:58.689Z,10.82
2023-02-24T17:49:26.492Z,9.48
2023-02-24T17:51:54.344Z,10.07
2023-02-24T17:54:22.112Z,9.57
2023-02-24T17:56:50.452Z,11.07
2023-02-24T17:59:18.105Z,11.48
2023-02-24T18:01:46.066Z,10.65
2023-02-24T18:04:17.099Z,9.43
2023-02-24T18:06:45.336Z,10.77
2023-02-24T18:09:13.291Z,10.38
2023-02-24T18:11:41.332Z,14.35
2023-02-24T18:14:09.530Z,12.57
2023-02-24T18:16:37.529Z,12.10
2023-02-24T18:19:05.455Z,11.65
2023-02-24T18:21:33.745Z,11.45
2023-02-24T18:24:01.612Z,12.45
2023-02-24T18:26:29.734Z,12.38
2023-02-24T18:28:59.038Z,13.38
2023-02-24T18:31:28.249Z,10.75
2023-02-24T18:33:58.206Z,12.48
2023-02-24T18:36:27.098Z,13.05
2023-02-24T18:38:57.492Z,14.20
2023-02-24T18:41:25.681Z,16.55
2023-02-24T18:43:57.658Z,14.27
2023-02-24T18:46:27.161Z,13.63
2023-02-24T18:48:56.882Z,14.98
2023-02-24T18:51:29.303Z,17.00
2023-02-24T18:54:01.647Z,16.05
2023-02-24T18:56:31.308Z,14.40
2023-02-24T18:58:59.998Z,15.88
2023-02-24T19:01:30.732Z,14.07
2023-02-24T19:03:59.919Z,15.40
2023-02-24T19:06:29.937Z,17.48
2023-02-24T19:09:06.058Z,14.73
2023-02-24T19:11:34.476Z,12.70
2023-02-24T19:14:02.529Z,14.15
2023-02-24T19:16:30.788Z,13.10
2023-02-24T19:19:02.293Z,13.48
2023-02-24T19:21:32.122Z,11.88
2023-02-24T19:24:04.048Z,11.88
2023-02-24T19:26:32.167Z,11.73
2023-02-24T19:29:00.487Z,11.80
2023-02-24T19:31:29.820Z,10.25
2023-02-24T19:34:03.301Z,11.05
2023-02-24T19:36:32.748Z,9.90
2023-02-24T19:39:00.918Z,12.15
2023-02-24T19:41:29.011Z,8.00
2023-02-24T19:43:56.782Z,7.28
2023-02-24T19:46:25.193Z,7.50
2023-02-24T19:48:54.004Z,6.53
2023-02-24T19:51:24.016Z,9.50
2023-02-24T19:53:56.724Z,8.18
2023-02-24T19:56:26.737Z,5.72
2023-02-24T19:58:55.802Z,5.32
2023-02-24T20:01:24.333Z,6.07
2023-02-24T20:03:55.451Z,4.85
2023-02-24T20:06:26.982Z,6.68
2023-02-24T20:08:55.241Z,7.05
2023-02-24T20:11:24.399Z,5.57
2023-02-24T20:13:53.383Z,7.60
2023-02-24T20:16:24.011Z,8.10
2023-02-24T20:18:54.110Z,9.93
2023-02-24T20:21:22.134Z,6.93
2023-02-24T20:23:50.296Z,6.95
2023-02-24T20:26:19.825Z,5.80
2023-02-24T20:28:48.435Z,6.35
2023-02-24T20:31:21.183Z,11.77
2023-02-24T20:33:50.537Z,6.05
2023-02-24T20:36:24.491Z,8.68
2023-02-24T20:38:53.369Z,12.88
2023-02-24T20:41:23.679Z,5.03
2023-02-24T20:43:51.651Z,8.55
2023-02-24T20:46:29.028Z,8.45
2023-02-24T20:48:59.595Z,13.30
2023-02-24T20:51:28.649Z,10.68
2023-02-24T20:53:58.584Z,8.55
2023-02-24T20:56:29.279Z,9.90
2023-02-24T20:59:06.040Z,10.25
2023-02-24T21:01:34.940Z,8.75
2023-02-24T21:04:03.241Z,6.05
2023-02-24T21:06:31.347Z,5.13
2023-02-24T21:08:59.310Z,3.35
2023-02-24T21:11:31.918Z,6.45
2023-02-24T21:13:59.916Z,4.20
2023-02-24T21:16:28.386Z,11.77
2023-02-24T21:18:59.005Z,5.40
2023-02-24T21:21:27.128Z,8.50
2023-02-24T21:23:55.930Z,5.20
2023-02-24T21:26:27.221Z,7.85
2023-02-24T21:28:59.600Z,9.32
2023-02-24T21:31:28.032Z,11.13
2023-02-24T21:33:56.485Z,7.60
2023-02-24T21:36:26.445Z,9.77
2023-02-24T21:38:55.377Z,11.52
2023-02-24T21:41:23.923Z,16.50
2023-02-24T21:43:59.397Z,6.93
2023-02-24T21:46:28.834Z,6.72
2023-02-24T21:48:58.424Z,16.15
2023-02-24T21:51:27.985Z,12.07
2023-02-24T21:53:57.044Z,9.90
2023-02-24T21:56:28.706Z,11.85
2023-02-24T21:59:01.561Z,29.17
2023-02-24T22:01:34.116Z,18.83
2023-02-24T22:04:08.601Z,6.72
2023-02-24T22:06:39.000Z,9.88
2023-02-24T22:09:09.427Z,11.20
2023-02-24T22:11:41.107Z,8.80
2023-02-24T22:14:13.560Z,10.77
2023-02-24T22:16:42.464Z,10.48
2023-02-24T22:19:11.290Z,9.07
2023-02-24T22:24:13.650Z,5.95
2023-02-24T22:26:42.068Z,10.60
2023-02-24T22:29:10.174Z,8.00
2023-02-24T22:31:39.368Z,6.82
2023-02-24T22:34:09.031Z,7.32
2023-02-24T22:36:40.008Z,10.57
2023-02-24T22:39:09.564Z,9.48
2023-02-24T22:41:38.450Z,9.82
2023-02-24T22:44:06.983Z,14.02
2023-02-24T22:46:37.327Z,18.13
2023-02-24T22:49:06.180Z,13.68
2023-02-24T22:51:34.226Z,13.35
2023-02-24T22:54:04.726Z,11.02
2023-02-24T22:56:33.160Z,9.25
2023-02-24T22:59:03.948Z,11.50
2023-02-24T23:01:34.219Z,7.68
2023-02-24T23:04:04.451Z,10.20
2023-02-24T23:06:33.447Z,9.90
2023-02-24T23:09:05.669Z,15.48
2023-02-24T23:11:37.061Z,14.10
2023-02-24T23:14:10.148Z,13.20
2023-02-24T23:16:39.164Z,14.90
2023-02-24T23:19:10.867Z,11.32
2023-02-24T23:21:41.275Z,9.25
2023-02-24T23:24:11.170Z,11.00
2023-02-24T23:26:54.310Z,10.80
2023-02-24T23:29:23.478Z,12.40
2023-02-24T23:31:52.610Z,18.25
2023-02-24T23:34:20.693Z,8.05
2023-02-24T23:36:49.378Z,9.50
2023-02-24T23:39:21.649Z,9.35
2023-02-24T23:41:49.662Z,10.68
2023-02-24T23:44:17.422Z,7.10
2023-02-24T23:46:45.781Z,10.15
2023-02-24T23:49:14.032Z,7.75
2023-02-24T23:51:48.546Z,14.43
2023-02-24T23:54:20.549Z,11.20
2023-02-24T23:56:48.498Z,11.85
2023-02-24T23:59:16.678Z,7.40
